createdAt,value
2023-01-19T00:01:06.472Z,94.5
2023-01-19T00:02:14.758Z,94.5
2023-01-19T00:03:23.871Z,95
2023-01-19T00:04:33.057Z,94.5
2023-01-19T00:05:42.325Z,95.5
2023-01-19T00:06:51.453Z,95
2023-01-19T00:08:00.651Z,95
2023-01-19T00:09:09.691Z,95
2023-01-19T00:10:18.980Z,94.5
2023-01-19T00:11:28.090Z,94.5
2023-01-19T00:12:37.317Z,95
2023-01-19T00:13:46.503Z,95
2023-01-19T00:14:55.605Z,95
2023-01-19T00:16:04.880Z,95
2023-01-19T00:17:13.029Z,95.5
2023-01-19T00:18:22.187Z,94.5
2023-01-19T00:19:31.403Z,95.5
2023-01-19T00:20:40.533Z,96
2023-01-19T00:21:49.685Z,95
2023-01-19T00:22:58.717Z,95.5
2023-01-19T00:24:08.140Z,95.5
2023-01-19T00:25:16.214Z,95.5
2023-01-19T00:26:24.419Z,95.5
2023-01-19T00:27:32.631Z,96.5
2023-01-19T00:28:40.873Z,95
2023-01-19T00:29:49.985Z,96.5
2023-01-19T00:30:59.165Z,97
2023-01-19T00:32:08.345Z,96.5
2023-01-19T00:33:17.451Z,96
2023-01-19T00:34:26.532Z,96
2023-01-19T00:35:35.855Z,96
2023-01-19T00:36:45.065Z,96
2023-01-19T00:37:54.266Z,96.5
2023-01-19T00:39:03.384Z,96
2023-01-19T00:40:12.587Z,95.5
2023-01-19T00:41:21.743Z,96.5
2023-01-19T00:42:30.939Z,97
2023-01-19T00:43:39.164Z,96
2023-01-19T00:44:48.266Z,96
2023-01-19T00:45:57.350Z,95
2023-01-19T00:47:06.608Z,95.5
2023-01-19T00:48:15.815Z,95.5
2023-01-19T00:49:24.849Z,95
2023-01-19T00:50:34.085Z,95.5
2023-01-19T00:51:42.338Z,96
2023-01-19T00:52:50.501Z,96.5
2023-01-19T00:53:58.668Z,95.5
2023-01-19T00:55:06.932Z,95.5
2023-01-19T00:56:16.072Z,96
2023-01-19T00:57:25.074Z,96
2023-01-19T00:58:34.436Z,95.5
2023-01-19T00:59:43.521Z,96.5
2023-01-19T01:00:52.755Z,97
2023-01-19T01:02:02.008Z,96
2023-01-19T01:03:11.252Z,96.5
2023-01-19T01:04:20.280Z,95.5
2023-01-19T01:05:29.490Z,97
2023-01-19T01:06:38.677Z,96.5
2023-01-19T01:07:47.794Z,95
2023-01-19T01:08:57.036Z,97
2023-01-19T01:10:05.200Z,95.5
2023-01-19T01:11:14.317Z,95.5
2023-01-19T01:12:23.508Z,96.5
2023-01-19T01:14:41.916Z,95.5
2023-01-19T01:15:51.039Z,95.5
2023-01-19T01:17:00.199Z,96.5
2023-01-19T01:18:09.266Z,96
2023-01-19T01:20:26.668Z,95.5
2023-01-19T01:21:34.783Z,96
2023-01-19T01:22:43.135Z,95.5
2023-01-19T01:23:52.190Z,96
2023-01-19T01:25:01.457Z,96
2023-01-19T01:26:10.590Z,95.5
2023-01-19T01:27:19.878Z,95.5
2023-01-19T01:28:28.831Z,96
2023-01-19T01:29:38.166Z,96.5
2023-01-19T01:30:47.544Z,95.5
2023-01-19T01:31:56.516Z,96.5
2023-01-19T01:33:05.616Z,97
2023-01-19T01:34:14.836Z,97
2023-01-19T01:35:24.032Z,97.5
2023-01-19T01:36:33.137Z,97
2023-01-19T01:37:41.223Z,97
2023-01-19T01:38:50.542Z,97.5
2023-01-19T01:39:59.597Z,98
2023-01-19T01:41:08.956Z,98
2023-01-19T01:42:18.168Z,99
2023-01-19T01:43:27.300Z,98.5
2023-01-19T01:44:36.431Z,99
2023-01-19T01:45:44.451Z,99
2023-01-19T01:46:52.837Z,99
2023-01-19T01:48:01.022Z,99
2023-01-19T01:49:09.189Z,99.5
2023-01-19T01:50:18.413Z,99
2023-01-19T01:51:27.570Z,99
2023-01-19T01:52:36.646Z,99
2023-01-19T01:53:45.896Z,98.5
2023-01-19T01:54:54.895Z,99
2023-01-19T01:56:04.264Z,98.5
2023-01-19T01:57:13.419Z,99
2023-01-19T01:58:22.587Z,99
2023-01-19T01:59:31.711Z,99
2023-01-19T02:00:40.945Z,98
2023-01-19T02:01:50.092Z,98.5
2023-01-19T02:02:59.263Z,98
2023-01-19T02:04:07.540Z,97.5
2023-01-19T02:05:16.613Z,97.5
2023-01-19T02:07:34.894Z,98
2023-01-19T02:08:44.175Z,97.5
2023-01-19T02:09:53.360Z,97.5
2023-01-19T02:11:02.501Z,98
2023-01-19T02:12:11.699Z,98
2023-01-19T02:13:19.921Z,97.5
2023-01-19T02:14:28.064Z,97
2023-01-19T02:15:36.201Z,97.5
2023-01-19T02:16:44.277Z,98
2023-01-19T02:17:53.440Z,97.5
2023-01-19T02:19:02.827Z,97.5
2023-01-19T02:20:12.055Z,97.5
2023-01-19T02:21:21.172Z,97.5
2023-01-19T02:22:30.314Z,98
2023-01-19T02:23:39.479Z,97.5
2023-01-19T02:24:48.670Z,97
2023-01-19T02:25:57.810Z,98
2023-01-19T02:27:07.054Z,97
2023-01-19T02:28:16.189Z,97
2023-01-19T02:29:25.349Z,96.5
2023-01-19T02:30:34.512Z,97
2023-01-19T02:31:42.742Z,97
2023-01-19T02:32:51.835Z,97
2023-01-19T02:34:01.065Z,96.5
2023-01-19T02:35:10.300Z,96.5
2023-01-19T02:36:19.392Z,97.5
2023-01-19T02:37:28.556Z,96.5
2023-01-19T02:38:37.754Z,96.5
2023-01-19T02:39:46.925Z,96
2023-01-19T02:40:56.106Z,96
2023-01-19T02:42:05.287Z,96
2023-01-19T02:43:14.463Z,97.5
2023-01-19T02:44:23.624Z,96.5
2023-01-19T02:45:32.799Z,96
2023-01-19T02:46:40.824Z,98
2023-01-19T02:47:50.165Z,97
2023-01-19T02:48:58.299Z,97.5
2023-01-19T02:50:07.540Z,96.5
2023-01-19T02:51:15.728Z,96
2023-01-19T02:52:24.707Z,96.5
2023-01-19T02:53:33.121Z,97
2023-01-19T02:54:42.278Z,97.5
2023-01-19T02:55:50.449Z,97.5
2023-01-19T02:56:59.634Z,96.5
2023-01-19T02:58:08.615Z,96.5
2023-01-19T02:59:18.039Z,98
2023-01-19T03:00:27.094Z,97.5
2023-01-19T03:01:36.333Z,98
2023-01-19T03:02:45.554Z,98
2023-01-19T03:03:54.678Z,98.5
2023-01-19T03:05:03.861Z,98.5
2023-01-19T03:06:12.912Z,98.5
2023-01-19T03:07:22.127Z,99.5
2023-01-19T03:08:31.387Z,99.5
2023-01-19T03:09:40.524Z,99.5
2023-01-19T03:10:48.717Z,99.5
2023-01-19T03:11:57.874Z,99.5
2023-01-19T03:13:07.072Z,99.5
2023-01-19T03:14:16.249Z,99.5
2023-01-19T03:15:25.363Z,99.5
2023-01-19T03:16:34.561Z,99.5
2023-01-19T03:17:42.621Z,99.5
2023-01-19T03:18:50.997Z,99.5
2023-01-19T03:19:59.173Z,99.5
2023-01-19T03:21:07.335Z,99.5
2023-01-19T03:22:16.572Z,99.5
2023-01-19T03:23:25.520Z,99.5
2023-01-19T03:24:34.799Z,99.5
2023-01-19T03:25:43.993Z,99.5
2023-01-19T03:28:02.336Z,99.5
2023-01-19T03:29:11.519Z,99.5
2023-01-19T03:30:20.711Z,99.5
2023-01-19T03:31:29.921Z,99.5
2023-01-19T03:32:39.130Z,99.5
2023-01-19T03:33:48.325Z,99.5
2023-01-19T03:34:57.414Z,99.5
2023-01-19T03:36:05.564Z,99.5
2023-01-19T03:37:14.606Z,99.5
2023-01-19T03:38:23.819Z,99.5
2023-01-19T03:39:33.170Z,99.5
2023-01-19T03:40:42.225Z,99.5
2023-01-19T03:41:51.524Z,99.5
2023-01-19T03:43:00.693Z,99.5
2023-01-19T03:44:09.649Z,99.5
2023-01-19T03:45:17.840Z,99.5
2023-01-19T03:46:26.149Z,99.5
2023-01-19T03:47:35.383Z,99.5
2023-01-19T03:48:43.580Z,99.5
2023-01-19T03:49:51.894Z,99.5
2023-01-19T03:51:00.977Z,99.5
2023-01-19T03:52:10.152Z,99.5
2023-01-19T03:53:19.264Z,99.5
2023-01-19T03:54:28.285Z,99.5
2023-01-19T03:55:37.638Z,99.5
2023-01-19T03:56:46.827Z,99.5
2023-01-19T03:57:55.952Z,99.5
2023-01-19T03:59:05.102Z,99.5
2023-01-19T04:00:14.321Z,99.5
2023-01-19T04:01:23.546Z,99.5
2023-01-19T04:02:32.594Z,99.5
2023-01-19T04:03:41.807Z,99.5
2023-01-19T04:04:49.955Z,99.5
2023-01-19T04:05:59.061Z,99.5
2023-01-19T04:07:08.214Z,99.5
2023-01-19T04:08:17.555Z,99.5
2023-01-19T04:09:26.728Z,99
2023-01-19T04:10:36.347Z,99.5
2023-01-19T04:11:45.086Z,99
2023-01-19T04:12:53.262Z,99.5
2023-01-19T04:14:01.429Z,99
2023-01-19T04:16:18.793Z,98.5
2023-01-19T04:17:26.979Z,98.5
2023-01-19T04:18:35.257Z,98
2023-01-19T04:19:44.210Z,98.5
2023-01-19T04:20:53.388Z,98
2023-01-19T04:22:02.732Z,97.5
2023-01-19T04:23:11.939Z,98
2023-01-19T04:24:20.954Z,97.5
2023-01-19T04:25:30.328Z,98.5
2023-01-19T04:26:39.274Z,97.5
2023-01-19T04:27:48.588Z,98.5
2023-01-19T04:28:57.756Z,97.5
2023-01-19T04:30:06.846Z,98.5
2023-01-19T04:31:16.112Z,98
2023-01-19T04:32:25.375Z,97.5
2023-01-19T04:33:33.474Z,98.5
2023-01-19T04:34:42.663Z,99.5
2023-01-19T04:35:51.800Z,99.5
2023-01-19T04:37:00.813Z,99.5
2023-01-19T04:38:10.104Z,99.5
2023-01-19T04:39:19.340Z,99.5
2023-01-19T04:41:37.700Z,99.5
2023-01-19T04:42:45.936Z,99.5
2023-01-19T04:43:54.062Z,99.5
2023-01-19T04:45:03.190Z,99.5
2023-01-19T04:46:11.439Z,99.5
2023-01-19T04:47:19.572Z,99.5
2023-01-19T04:49:38.064Z,99.5
2023-01-19T04:50:47.151Z,99.5
2023-01-19T04:51:56.371Z,99.5
2023-01-19T04:53:05.481Z,99.5
2023-01-19T04:54:14.543Z,99.5
2023-01-19T04:55:23.667Z,99.5
2023-01-19T04:56:33.074Z,99.5
2023-01-19T04:57:42.252Z,99.5
2023-01-19T04:58:51.418Z,99.5
2023-01-19T05:00:00.692Z,99.5
2023-01-19T05:01:09.790Z,99.5
2023-01-19T05:02:17.863Z,99.5
2023-01-19T05:03:26.901Z,99.5
2023-01-19T05:04:36.063Z,99.5
2023-01-19T05:05:45.234Z,99.5
2023-01-19T05:06:54.629Z,99.5
2023-01-19T05:08:03.781Z,99.5
2023-01-19T05:09:12.923Z,99.5
2023-01-19T05:10:22.132Z,99.5
2023-01-19T05:11:30.260Z,99.5
2023-01-19T05:12:38.483Z,99.5
2023-01-19T05:13:47.556Z,99.5
2023-01-19T05:14:56.855Z,99.5
2023-01-19T05:16:05.040Z,99.5
2023-01-19T05:17:13.165Z,99.5
2023-01-19T05:18:22.379Z,99.5
2023-01-19T05:19:31.601Z,99.5
2023-01-19T05:20:40.654Z,99.5
2023-01-19T05:21:49.910Z,99.5
2023-01-19T05:22:59.096Z,99.5
2023-01-19T05:24:08.071Z,99.5
2023-01-19T05:25:17.371Z,99.5
2023-01-19T05:26:26.509Z,99.5
2023-01-19T05:27:35.789Z,99.5
2023-01-19T05:28:44.763Z,99.5
2023-01-19T05:29:54.113Z,99.5
2023-01-19T05:31:03.234Z,99.5
2023-01-19T05:33:20.655Z,99.5
2023-01-19T05:34:29.845Z,99.5
2023-01-19T05:36:48.190Z,99.5
2023-01-19T05:37:56.379Z,99.5
2023-01-19T05:39:04.465Z,99.5
2023-01-19T05:40:13.703Z,99.5
2023-01-19T05:41:22.867Z,99.5
2023-01-19T05:42:32.030Z,99.5
2023-01-19T05:43:41.139Z,99.5
2023-01-19T05:44:50.290Z,99.5
2023-01-19T05:45:59.530Z,99.5
2023-01-19T05:47:08.763Z,99.5
2023-01-19T05:48:17.916Z,99.5
2023-01-19T05:49:27.144Z,99.5
2023-01-19T05:50:35.316Z,99.5
2023-01-19T05:51:43.476Z,99.5
2023-01-19T05:52:52.536Z,99.5
2023-01-19T05:54:01.655Z,99.5
2023-01-19T05:55:10.835Z,99.5
2023-01-19T05:57:29.350Z,99.5
2023-01-19T05:58:38.502Z,99.5
2023-01-19T05:59:47.646Z,99.5
2023-01-19T06:00:56.863Z,99.5
2023-01-19T06:02:05.879Z,99.5
2023-01-19T06:04:24.396Z,99.5
2023-01-19T06:05:32.581Z,99.5
2023-01-19T06:06:41.587Z,99.5
2023-01-19T06:07:49.942Z,99.5
2023-01-19T06:08:59.112Z,99.5
2023-01-19T06:10:08.283Z,99.5
2023-01-19T06:11:17.487Z,99.5
2023-01-19T06:12:26.497Z,99.5
2023-01-19T06:13:35.758Z,99.5
2023-01-19T06:14:44.801Z,99.5
2023-01-19T06:15:54.088Z,99.5
2023-01-19T06:17:03.275Z,99.5
2023-01-19T06:18:11.538Z,99.5
2023-01-19T06:20:28.714Z,99.5
2023-01-19T06:21:38.085Z,99.5
2023-01-19T06:22:47.067Z,99.5
2023-01-19T06:23:56.273Z,99.5
2023-01-19T06:25:05.569Z,99.5
2023-01-19T06:26:14.757Z,99.5
2023-01-19T06:27:23.734Z,99.5
2023-01-19T06:28:33.084Z,99.5
2023-01-19T06:29:42.301Z,99.5
2023-01-19T06:30:51.263Z,99.5
2023-01-19T06:32:00.451Z,99.5
2023-01-19T06:33:09.782Z,99.5
2023-01-19T06:34:17.973Z,99.5
2023-01-19T06:35:27.206Z,99.5
2023-01-19T06:36:36.311Z,99.5
2023-01-19T06:37:45.484Z,99.5
2023-01-19T06:38:54.633Z,99.5
2023-01-19T06:40:03.663Z,99.5
2023-01-19T06:41:13.035Z,99.5
2023-01-19T06:42:22.146Z,99.5
2023-01-19T06:43:30.337Z,99.5
2023-01-19T06:44:38.582Z,99.5
2023-01-19T06:45:47.755Z,99.5
2023-01-19T06:46:55.943Z,99.5
2023-01-19T06:48:04.112Z,99.5
2023-01-19T06:49:13.307Z,99.5
2023-01-19T06:50:22.464Z,99.5
2023-01-19T06:51:31.639Z,99.5
2023-01-19T06:52:40.810Z,99.5
2023-01-19T06:53:50.037Z,99.5
2023-01-19T06:54:59.065Z,99.5
2023-01-19T06:56:08.323Z,99.5
2023-01-19T06:57:17.525Z,99.5
2023-01-19T06:58:26.663Z,99.5
2023-01-19T06:59:35.954Z,99.5
2023-01-19T07:01:54.023Z,99.5
2023-01-19T07:03:02.414Z,99.5
2023-01-19T07:04:11.575Z,99.5
2023-01-19T07:05:20.728Z,99.5
2023-01-19T07:06:29.871Z,99.5
2023-01-19T07:07:39.034Z,99.5
2023-01-19T07:08:48.108Z,99.5
2023-01-19T07:09:57.354Z,99.5
2023-01-19T07:11:06.567Z,99.5
2023-01-19T07:13:24.912Z,99.5
2023-01-19T07:14:33.970Z,99.5
2023-01-19T07:15:43.138Z,99.5
2023-01-19T07:16:52.315Z,99.5
2023-01-19T07:18:00.470Z,99.5
2023-01-19T07:19:10.064Z,99.5
2023-01-19T07:20:19.010Z,99.5
2023-01-19T07:21:27.994Z,99.5
2023-01-19T07:22:37.175Z,99.5
2023-01-19T07:23:46.504Z,99.5
2023-01-19T07:24:54.743Z,99.5
2023-01-19T07:26:02.734Z,99.5
2023-01-19T07:27:12.091Z,99.5
2023-01-19T07:28:21.231Z,99.5
2023-01-19T07:29:30.422Z,99.5
2023-01-19T07:30:38.614Z,99.5
2023-01-19T07:31:46.764Z,99.5
2023-01-19T07:32:55.943Z,99.5
2023-01-19T07:34:05.133Z,99.5
2023-01-19T07:35:14.195Z,99.5
2023-01-19T07:36:23.495Z,99.5
2023-01-19T07:37:32.553Z,99.5
2023-01-19T07:39:50.995Z,99.5
2023-01-19T07:41:00.107Z,99.5
2023-01-19T07:42:09.270Z,99.5
2023-01-19T07:43:18.592Z,99.5
2023-01-19T07:44:27.760Z,99.5
2023-01-19T07:45:36.902Z,99.5
2023-01-19T07:46:44.970Z,99.5
2023-01-19T07:47:54.267Z,99.5
2023-01-19T07:49:03.360Z,99.5
2023-01-19T07:50:12.601Z,99.5
2023-01-19T07:51:21.770Z,99.5
2023-01-19T07:52:30.811Z,99.5
2023-01-19T07:53:40.174Z,99.5
2023-01-19T07:54:49.334Z,99.5
2023-01-19T07:55:57.308Z,99.5
2023-01-19T07:57:05.555Z,99.5
2023-01-19T07:58:14.840Z,99.5
2023-01-19T07:59:23.912Z,99.5
2023-01-19T08:00:33.179Z,99.5
2023-01-19T08:01:41.482Z,99.5
2023-01-19T08:02:49.540Z,99.5
2023-01-19T08:03:58.731Z,99.5
2023-01-19T08:05:07.757Z,99.5
2023-01-19T08:06:17.067Z,99.5
2023-01-19T08:07:26.219Z,99.5
2023-01-19T08:08:35.360Z,99.5
2023-01-19T08:09:44.498Z,99.5
2023-01-19T08:10:53.660Z,99.5
2023-01-19T08:12:02.785Z,99.5
2023-01-19T08:13:11.955Z,99.5
2023-01-19T08:14:21.185Z,99.5
2023-01-19T08:15:30.384Z,99.5
2023-01-19T08:16:39.475Z,99.5
2023-01-19T08:17:47.667Z,99.5
2023-01-19T08:18:56.856Z,99.5
2023-01-19T08:20:06.008Z,99.5
2023-01-19T08:21:15.183Z,99.5
2023-01-19T08:22:24.341Z,99.5
2023-01-19T08:23:33.664Z,99.5
2023-01-19T08:24:42.723Z,99.5
2023-01-19T08:25:51.903Z,99.5
2023-01-19T08:27:01.056Z,99.5
2023-01-19T08:28:10.234Z,99.5
2023-01-19T08:29:19.398Z,99.5
2023-01-19T08:30:28.722Z,99.5
2023-01-19T08:31:37.740Z,99.5
2023-01-19T08:32:45.928Z,99.5
2023-01-19T08:33:55.111Z,99.5
2023-01-19T08:35:04.270Z,99.5
2023-01-19T08:36:13.464Z,99.5
2023-01-19T08:37:22.634Z,99.5
2023-01-19T08:38:31.871Z,99.5
2023-01-19T08:39:40.967Z,99.5
2023-01-19T08:40:50.167Z,99.5
2023-01-19T08:41:59.309Z,99.5
2023-01-19T08:43:08.553Z,99.5
2023-01-19T08:44:17.672Z,99.5
2023-01-19T08:45:25.859Z,99.5
2023-01-19T08:46:34.071Z,99.5
2023-01-19T08:47:42.233Z,99.5
2023-01-19T08:48:50.428Z,99.5
2023-01-19T08:49:59.615Z,99.5
2023-01-19T08:51:08.775Z,99.5
2023-01-19T08:52:17.948Z,99.5
2023-01-19T08:53:27.114Z,99.5
2023-01-19T08:54:36.287Z,99.5
2023-01-19T08:55:45.478Z,99.5
2023-01-19T08:56:54.655Z,99.5
2023-01-19T08:58:03.880Z,99.5
2023-01-19T08:59:13.079Z,99.5
2023-01-19T09:00:22.356Z,99.5
2023-01-19T09:01:31.549Z,99.5
2023-01-19T09:02:40.641Z,99.5
2023-01-19T09:03:48.796Z,99.5
2023-01-19T09:04:58.080Z,99.5
2023-01-19T09:06:07.294Z,99.5
2023-01-19T09:07:16.216Z,99.5
2023-01-19T09:08:25.568Z,99.5
2023-01-19T09:09:34.663Z,99.5
2023-01-19T09:10:43.874Z,99.5
2023-01-19T09:11:52.173Z,99.5
2023-01-19T09:13:00.151Z,99.5
2023-01-19T09:14:09.305Z,99.5
2023-01-19T09:15:18.451Z,99.5
2023-01-19T09:16:27.642Z,99.5
2023-01-19T09:18:46.002Z,99.5
2023-01-19T09:19:55.178Z,99.5
2023-01-19T09:21:04.343Z,99.5
2023-01-19T09:22:13.531Z,99.5
2023-01-19T09:23:22.671Z,99.5
2023-01-19T09:24:31.848Z,99.5
2023-01-19T09:25:41.027Z,99.5
2023-01-19T09:26:50.195Z,99.5
2023-01-19T09:27:58.384Z,99.5
2023-01-19T09:29:07.606Z,99.5
2023-01-19T09:30:16.739Z,99.5
2023-01-19T09:31:25.896Z,99.5
2023-01-19T09:32:35.088Z,99.5
2023-01-19T09:33:44.259Z,99.5
2023-01-19T09:34:53.420Z,99.5
2023-01-19T09:36:02.609Z,99.5
2023-01-19T09:38:20.146Z,99.5
2023-01-19T09:39:28.153Z,99.5
2023-01-19T09:40:37.340Z,99.5
2023-01-19T09:41:46.533Z,99.5
2023-01-19T09:42:55.671Z,99.5
2023-01-19T09:44:04.848Z,99.5
2023-01-19T09:45:13.044Z,99.5
2023-01-19T09:46:21.233Z,99.5
2023-01-19T09:47:30.455Z,99.5
2023-01-19T09:48:38.626Z,99.5
2023-01-19T09:49:47.770Z,99.5
2023-01-19T09:50:55.966Z,99.5
2023-01-19T09:52:05.135Z,99.5
2023-01-19T09:53:14.337Z,99.5
2023-01-19T09:54:23.545Z,99.5
2023-01-19T09:55:32.899Z,99.5
2023-01-19T09:56:41.849Z,99.5
2023-01-19T09:57:51.028Z,99.5
2023-01-19T09:59:00.184Z,99.5
2023-01-19T10:00:09.342Z,99.5
2023-01-19T10:01:18.517Z,99.5
2023-01-19T10:02:27.702Z,99.5
2023-01-19T10:03:37.004Z,99.5
2023-01-19T10:04:46.053Z,99.5
2023-01-19T10:05:54.275Z,99.5
2023-01-19T10:07:03.409Z,99.5
2023-01-19T10:08:12.586Z,99.5
2023-01-19T10:09:21.752Z,99.5
2023-01-19T10:10:30.930Z,99.5
2023-01-19T10:11:40.095Z,99.5
2023-01-19T10:12:48.309Z,99.5
2023-01-19T10:13:56.547Z,99.5
2023-01-19T10:15:05.651Z,99.5
2023-01-19T10:16:13.851Z,99.5
2023-01-19T10:17:22.031Z,99.5
2023-01-19T10:18:31.210Z,99.5
2023-01-19T10:19:40.385Z,99.5
2023-01-19T10:20:49.548Z,99.5
2023-01-19T10:21:58.722Z,99.5
2023-01-19T10:23:07.910Z,99.5
2023-01-19T10:24:17.147Z,99.5
2023-01-19T10:25:26.267Z,99.5
2023-01-19T10:26:35.451Z,99.5
2023-01-19T10:27:44.588Z,99.5
2023-01-19T10:28:53.755Z,99.5
2023-01-19T10:30:02.932Z,99.5
2023-01-19T10:31:12.112Z,99.5
2023-01-19T10:32:20.303Z,99.5
2023-01-19T10:33:29.492Z,99.5
2023-01-19T10:34:38.652Z,99.5
2023-01-19T10:35:46.840Z,99.5
2023-01-19T10:36:56.019Z,99.5
2023-01-19T10:38:05.256Z,99.5
2023-01-19T10:39:14.362Z,99.5
2023-01-19T10:40:22.544Z,99.5
2023-01-19T10:41:31.849Z,99.5
2023-01-19T10:42:39.918Z,99.5
2023-01-19T10:43:49.113Z,99.5
2023-01-19T10:44:57.286Z,99.5
2023-01-19T10:46:06.487Z,99.5
2023-01-19T10:47:15.624Z,99.5
2023-01-19T10:48:24.812Z,99.5
2023-01-19T10:49:33.972Z,99.5
2023-01-19T10:50:43.226Z,99.5
2023-01-19T10:51:52.474Z,99.5
2023-01-19T10:53:01.659Z,97
2023-01-19T10:54:10.735Z,95.5
2023-01-19T10:55:19.907Z,94
2023-01-19T10:56:29.083Z,94.5
2023-01-19T10:57:38.355Z,93.5
2023-01-19T10:58:47.491Z,93
2023-01-19T10:59:55.638Z,92.5
2023-01-19T11:01:04.790Z,92.5
2023-01-19T11:02:13.948Z,92
2023-01-19T11:03:23.134Z,94.5
2023-01-19T11:04:32.354Z,94
2023-01-19T11:05:41.489Z,95.5
2023-01-19T11:06:49.670Z,96
2023-01-19T11:07:57.863Z,95.5
2023-01-19T11:09:07.028Z,96
2023-01-19T11:10:16.206Z,97
2023-01-19T11:11:25.374Z,98
2023-01-19T11:12:34.672Z,97
2023-01-19T11:13:43.719Z,97.5
2023-01-19T11:14:52.914Z,97.5
2023-01-19T11:16:02.109Z,97
2023-01-19T11:17:11.243Z,95.5
2023-01-19T11:18:20.414Z,93
2023-01-19T11:19:29.580Z,91
2023-01-19T11:20:38.750Z,96
2023-01-19T11:21:47.990Z,95
2023-01-19T11:22:56.116Z,92
2023-01-19T11:24:05.288Z,94.5
2023-01-19T11:25:14.480Z,95
2023-01-19T11:26:23.644Z,94
2023-01-19T11:27:32.832Z,91
2023-01-19T11:28:41.999Z,89
2023-01-19T11:29:51.169Z,88.5
2023-01-19T11:30:59.357Z,89.5
2023-01-19T11:32:07.547Z,84.5
2023-01-19T11:33:16.721Z,80
2023-01-19T11:34:24.988Z,83
2023-01-19T11:35:33.096Z,88.5
2023-01-19T11:36:42.268Z,89.5
2023-01-19T11:37:51.440Z,92
2023-01-19T11:38:59.624Z,94
2023-01-19T11:40:07.827Z,96
2023-01-19T11:41:16.989Z,97
2023-01-19T11:42:26.235Z,97
2023-01-19T11:43:35.336Z,95.5
2023-01-19T11:44:44.518Z,92.5
2023-01-19T11:45:53.683Z,92.5
2023-01-19T11:47:02.867Z,93
2023-01-19T11:48:12.048Z,89.5
2023-01-19T11:50:30.385Z,90
2023-01-19T11:51:39.582Z,92
2023-01-19T11:52:48.734Z,92.5
2023-01-19T11:53:57.986Z,91
2023-01-19T11:55:06.088Z,89
2023-01-19T11:56:15.277Z,90
2023-01-19T11:57:24.418Z,91
2023-01-19T11:58:33.609Z,90
2023-01-19T11:59:42.782Z,88
2023-01-19T12:00:51.985Z,90.5
2023-01-19T12:02:01.122Z,87
2023-01-19T12:03:10.306Z,87
2023-01-19T12:04:18.548Z,87.5
2023-01-19T12:05:26.677Z,88.5
2023-01-19T12:06:35.902Z,86.5
2023-01-19T12:07:45.017Z,88
2023-01-19T12:08:54.272Z,87
2023-01-19T12:10:02.414Z,86.5
2023-01-19T12:11:10.577Z,87
2023-01-19T12:12:19.799Z,87.5
2023-01-19T12:13:28.924Z,86.5
2023-01-19T12:14:38.094Z,86.5
2023-01-19T12:16:56.435Z,88
2023-01-19T12:18:05.623Z,87.5
2023-01-19T12:19:14.788Z,87
2023-01-19T12:21:33.163Z,85.5
2023-01-19T12:22:42.303Z,87.5
2023-01-19T12:23:51.465Z,90
2023-01-19T12:24:59.677Z,89.5
2023-01-19T12:26:08.035Z,87.5
2023-01-19T12:27:17.024Z,86
2023-01-19T12:28:26.193Z,87
2023-01-19T12:29:35.356Z,86.5
2023-01-19T12:30:44.539Z,86.5
2023-01-19T12:31:53.704Z,86.5
2023-01-19T12:33:02.890Z,88.5
2023-01-19T12:34:12.067Z,88
2023-01-19T12:35:21.235Z,87
2023-01-19T12:36:30.404Z,87
2023-01-19T12:37:38.595Z,84.5
2023-01-19T12:38:46.795Z,84
2023-01-19T12:39:55.953Z,87
2023-01-19T12:41:05.141Z,88
2023-01-19T12:42:14.318Z,91
2023-01-19T12:43:23.477Z,93
2023-01-19T12:44:32.648Z,93
2023-01-19T12:45:41.822Z,90
2023-01-19T12:46:50.986Z,92.5
2023-01-19T12:48:00.177Z,92.5
2023-01-19T12:49:09.347Z,94.5
2023-01-19T12:50:18.499Z,94
2023-01-19T12:51:27.706Z,95
2023-01-19T12:52:36.888Z,95
2023-01-19T12:53:45.075Z,95
2023-01-19T12:54:54.245Z,96
2023-01-19T12:56:03.408Z,96
2023-01-19T12:57:12.568Z,95.5
2023-01-19T12:58:21.733Z,95.5
2023-01-19T12:59:30.910Z,94.5
2023-01-19T13:01:49.255Z,96
2023-01-19T13:02:57.456Z,95
2023-01-19T13:04:05.634Z,93.5
2023-01-19T13:05:14.845Z,93
2023-01-19T13:06:23.979Z,89
2023-01-19T13:07:32.174Z,87.5
2023-01-19T13:08:40.364Z,87
2023-01-19T13:09:49.529Z,89
2023-01-19T13:10:58.711Z,91.5
2023-01-19T13:13:17.065Z,91
2023-01-19T13:14:26.238Z,90.5
2023-01-19T13:15:35.390Z,91.5
2023-01-19T13:16:44.575Z,90
2023-01-19T13:17:53.745Z,89.5
2023-01-19T13:19:02.927Z,92
2023-01-19T13:20:12.085Z,95
2023-01-19T13:21:21.298Z,95
2023-01-19T13:22:30.459Z,95.5
2023-01-19T13:23:38.622Z,95.5
2023-01-19T13:24:47.806Z,92.5
2023-01-19T13:25:56.968Z,89.5
2023-01-19T13:27:06.149Z,91
2023-01-19T13:28:15.322Z,90.5
2023-01-19T13:29:24.489Z,92.5
2023-01-19T13:30:33.758Z,94
2023-01-19T13:31:42.852Z,95.5
2023-01-19T13:32:51.037Z,96
2023-01-19T13:33:59.249Z,93.5
2023-01-19T13:35:07.403Z,93
2023-01-19T13:36:15.606Z,93
2023-01-19T13:37:24.772Z,93.5
2023-01-19T13:38:34.114Z,94
2023-01-19T13:39:43.120Z,92
2023-01-19T13:40:52.298Z,91.5
2023-01-19T13:42:01.509Z,92.5
2023-01-19T13:43:10.636Z,94
2023-01-19T13:44:19.823Z,94
2023-01-19T13:45:28.983Z,94
2023-01-19T13:46:38.167Z,93.5
2023-01-19T13:47:47.323Z,94
2023-01-19T13:48:56.507Z,94.5
2023-01-19T13:50:05.664Z,94.5
2023-01-19T13:51:13.857Z,94.5
2023-01-19T13:52:23.158Z,94.5
2023-01-19T13:53:32.194Z,94.5
2023-01-19T13:54:41.363Z,92.5
2023-01-19T13:55:50.557Z,90.5
2023-01-19T13:56:59.722Z,91.5
2023-01-19T13:58:08.905Z,92
2023-01-19T13:59:17.106Z,94
2023-01-19T14:00:25.312Z,92.5
2023-01-19T14:02:42.644Z,94
2023-01-19T14:03:50.836Z,92.5
2023-01-19T14:04:59.033Z,91.5
2023-01-19T14:07:17.393Z,90
2023-01-19T14:08:26.589Z,89
2023-01-19T14:09:35.719Z,89.5
2023-01-19T14:10:44.918Z,89.5
2023-01-19T14:11:54.074Z,89
2023-01-19T14:13:03.230Z,90
2023-01-19T14:14:12.402Z,89
2023-01-19T14:15:21.590Z,88.5
2023-01-19T14:16:30.836Z,89.5
2023-01-19T14:17:39.925Z,90
2023-01-19T14:18:49.162Z,86.5
2023-01-19T14:19:57.287Z,88
2023-01-19T14:21:06.499Z,89
2023-01-19T14:22:15.639Z,91
2023-01-19T14:23:24.817Z,92
2023-01-19T14:24:34.016Z,92.5
2023-01-19T14:25:43.152Z,94
2023-01-19T14:26:51.340Z,93.5
2023-01-19T14:28:00.517Z,94
2023-01-19T14:29:08.709Z,94
2023-01-19T14:30:16.918Z,94.5
2023-01-19T14:31:25.095Z,94.5
2023-01-19T14:32:33.289Z,94.5
2023-01-19T14:33:42.498Z,95
2023-01-19T14:34:51.639Z,94
2023-01-19T14:36:00.797Z,91.5
2023-01-19T14:37:09.968Z,92.5
2023-01-19T14:38:19.150Z,94
2023-01-19T14:39:28.376Z,93.5
2023-01-19T14:40:37.527Z,93
2023-01-19T14:41:46.664Z,91
2023-01-19T14:42:55.843Z,91.5
2023-01-19T14:44:05.012Z,92
2023-01-19T14:45:14.418Z,91.5
2023-01-19T14:46:23.366Z,90
2023-01-19T14:47:31.531Z,92
2023-01-19T14:48:40.709Z,92.5
2023-01-19T14:49:49.968Z,91
2023-01-19T14:50:59.069Z,92.5
2023-01-19T14:52:08.256Z,94
2023-01-19T14:53:17.397Z,94.5
2023-01-19T14:54:26.591Z,95.5
2023-01-19T14:55:34.777Z,96
2023-01-19T14:56:42.959Z,96.5
2023-01-19T14:57:51.153Z,96.5
2023-01-19T14:58:59.339Z,96
2023-01-19T15:00:08.502Z,96.5
2023-01-19T15:01:17.684Z,96.5
2023-01-19T15:02:26.860Z,96
2023-01-19T15:03:36.024Z,96
2023-01-19T15:04:45.206Z,95.5
2023-01-19T15:05:54.386Z,96
2023-01-19T15:07:03.635Z,97
2023-01-19T15:08:12.734Z,97
2023-01-19T15:09:21.894Z,98
2023-01-19T15:10:31.065Z,97
2023-01-19T15:11:40.242Z,97
2023-01-19T15:12:49.448Z,97.5
2023-01-19T15:13:57.625Z,97.5
2023-01-19T15:15:06.771Z,98
2023-01-19T15:16:15.953Z,98
2023-01-19T15:17:25.137Z,97
2023-01-19T15:18:34.305Z,97.5
2023-01-19T15:19:43.505Z,99
2023-01-19T15:20:52.650Z,98
2023-01-19T15:22:00.831Z,98.5
2023-01-19T15:23:09.022Z,98
2023-01-19T15:24:18.216Z,97.5
2023-01-19T15:25:27.378Z,98
2023-01-19T15:26:36.548Z,98
2023-01-19T15:27:45.739Z,98
2023-01-19T15:28:53.931Z,98
2023-01-19T15:30:02.102Z,98.5
2023-01-19T15:31:11.268Z,98.5
2023-01-19T15:32:20.452Z,98.5
2023-01-19T15:33:29.656Z,99
2023-01-19T15:34:38.791Z,98.5
2023-01-19T15:35:47.964Z,99
2023-01-19T15:36:57.144Z,99
2023-01-19T15:38:06.314Z,99
2023-01-19T15:39:15.490Z,98.5
2023-01-19T15:40:24.693Z,99
2023-01-19T15:41:33.818Z,98.5
2023-01-19T15:42:43.002Z,99
2023-01-19T15:43:52.170Z,99
2023-01-19T15:45:00.370Z,99.5
2023-01-19T15:46:09.530Z,99
2023-01-19T15:47:18.761Z,98.5
2023-01-19T15:48:27.886Z,99
2023-01-19T15:49:37.064Z,99
2023-01-19T15:50:46.240Z,99.5
2023-01-19T15:51:55.405Z,99.5
2023-01-19T15:53:03.602Z,99.5
2023-01-19T15:54:11.798Z,99.5
2023-01-19T15:55:20.974Z,99.5
2023-01-19T15:56:30.180Z,99.5
2023-01-19T15:57:38.332Z,99.5
2023-01-19T15:58:47.497Z,99
2023-01-19T15:59:55.681Z,99.5
2023-01-19T16:01:04.873Z,99.5
2023-01-19T16:02:14.026Z,99.5
2023-01-19T16:03:23.218Z,98.5